Date,TemperatureHighF,TemperatureAvgF,TemperatureLowF,DewpointHighF,DewpointAvgF,DewpointLowF,HumidityHigh,HumidityAvg,HumidityLow,PressureMaxIn,PressureMinIn,WindSpeedMaxMPH,WindSpeedAvgMPH,GustSpeedMaxMPH,PrecipitationSumIn
2013-3-1,64.0,56.4,51.1,50.0,44.7,39.0,87,67,42,29.97,29.89,7,1,13,0.00
2013-3-2,60.1,51.7,39.0,43.0,36.9,31.0,84,59,37,30.02,29.92,12,3,18,0.00
2013-3-3,57.0,45.3,33.2,37.0,33.7,30.0,90,66,43,30.15,29.95,11,3,20,0.00
2013-3-4,65.1,46.6,28.8,42.0,33.6,27.0,96,67,27,30.22,30.11,10,1,13,0.00
2013-3-5,79.3,58.9,38.0,54.0,45.4,37.0,98,66,28,30.17,30.00,8,1,11,0.00
2013-3-6,71.6,60.7,47.1,61.0,42.4,25.0,95,58,18,30.11,29.92,11,3,17,0.03
2013-3-7,67.6,52.2,40.5,49.0,42.1,34.0,94,70,48,30.18,30.08,7,2,12,0.00
2013-3-8,72.9,54.7,39.6,53.0,46.4,39.0,98,77,42,30.21,30.11,6,1,9,0.00
2013-3-9,74.7,59.4,44.4,57.0,50.7,43.0,97,76,49,30.21,30.11,7,1,10,0.00
2013-3-10,76.8,63.4,50.1,61.0,54.9,49.0,97,76,49,30.16,30.08,7,1,13,0.00
2013-3-11,77.3,65.6,51.2,63.0,57.8,50.0,98,78,51,30.11,29.93,12,2,15,0.00
2013-3-12,75.5,68.3,59.9,70.0,64.2,57.0,95,87,80,29.99,29.88,11,2,14,0.16
2013-3-13,73.5,59.5,48.0,57.0,48.9,42.0,96,72,35,30.14,29.99,9,2,14,0.01
2013-3-14,65.1,54.2,44.5,47.0,42.2,35.0,90,66,44,30.22,30.11,9,2,16,0.00
2013-3-15,70.5,52.9,38.1,47.0,42.4,37.0,96,72,39,30.26,30.14,8,1,10,0.00
2013-3-16,79.8,59.0,38.9,55.0,47.3,38.0,98,70,31,30.18,30.04,6,1,11,0.00
2013-3-17,79.9,63.6,45.1,60.0,54.3,44.0,97,74,46,30.15,30.00,9,2,12,0.00
2013-3-18,80.1,71.0,61.6,67.0,63.3,59.0,94,77,60,30.05,29.87,8,2,14,0.01
2013-3-19,85.3,70.5,60.8,68.0,64.1,60.0,97,82,50,29.99,29.87,5,1,8,0.00
2013-3-20,79.0,69.9,61.8,70.0,64.1,57.0,98,83,63,29.95,29.77,6,1,14,0.00
2013-3-21,72.0,59.4,46.3,57.0,45.2,31.0,96,66,22,29.95,29.81,6,1,14,0.00
2013-3-22,78.0,60.0,40.4,63.0,52.4,39.0,97,79,44,30.00,29.89,5,1,10,0.51
2013-3-23,88.9,75.1,64.2,74.0,68.2,63.0,98,81,47,29.96,29.74,11,2,17,0.00
2013-3-24,88.0,72.6,66.1,73.0,68.4,63.0,98,88,54,29.85,29.62,20,2,26,0.41
2013-3-25,74.3,67.2,54.6,70.0,50.4,27.0,98,63,18,29.99,29.71,9,2,16,0.01
2013-3-26,62.8,54.1,45.2,42.0,31.9,25.0,68,45,24,30.20,30.00,13,4,16,0.00
2013-3-27,64.8,49.5,37.8,44.0,37.0,32.0,92,66,32,30.27,30.17,7,1,12,0.00
2013-3-28,69.8,53.8,40.1,48.0,41.6,35.0,96,68,31,30.27,30.18,8,1,11,0.00
2013-3-29,73.7,56.8,44.1,51.0,45.6,42.0,96,71,34,30.30,30.20,9,1,9,0.00
2013-3-30,75.7,60.8,44.0,56.0,50.5,43.0,97,72,45,30.25,30.12,10,2,15,0.00
2013-3-31,82.8,67.5,51.2,65.0,57.2,50.0,97,73,41,30.17,29.99,9,2,13,0.00